Briefing drone pour Albens

Rechercher une autre localisation

Conditions de vol :


Nous sommes le : Dimanche 22 mai 2022
Il est 22:24 UTC (00:24 LT)

Lever de soleil : 03:31 UTC (05:31 LT)
Coucher de soleil : 19:34 UTC (21:34 LT)

Météo

L'essentiel des conditions de vol

VIGILANCE MÉTÉO FRANCE - Savoie (73)
Pas de vigilances particulieres
CARTE TEMSI
CARTES DES FRONTS
METAR de LFLB
LFLB 212200Z AUTO 00000KT CAVOK 17/14 Q1017

Date d'émission: 21/05/2022
Heure d'émission: 22:00 UTC
Vent: Calme
Visibilité horizontale: > 10 km
Plafond : Plafond et visibilité OK (CAVOK)
Température: 17 °C
Point de rosée: 14 °C
Humidité: 83%
Pression (QNH): 1017 hPa
TAF de LFLB
LFLB 211900Z 2119/2215 CNL= LFLS 211901Z 2119/2215 CNL

Conditions prévues :

Heure d'émission : Bulletin éffectué le 21 à 19:00 UTC
Prévision : Valide du 21 a 19:00 UTC au 22 a 15:00 UTC
Nuages : à 0ft (0 m)
à 0ft (0 m)
à 0ft (0 m)
à 0ft (0 m)
WEBCAM POUR ALBENS

Réglementation

Voler en sécurité

CARTES AERONAUTIQUE 1/500.000
CARTES VAC (LFLB)
SUP AIP




Chargement des AIP...
NOTAM (ALBENS + Terrain à proximité / FIR )




Chargement des NOTAMS...
CONTACT PREFECTURE 73


Avertissement : Les données mises à disposition sont indicatives. Oxygène Drone ne pourra être tenu responsable de dégâts causés aux biens et aux personnes.